Time;durP1;ratioP1;P1;durP2;ratioP2;P2;SDS_P1;SDS_P2;PMS_P1;PMS_P2;Temp;Humidity;BMP_temperature;BMP_pressure;BME280_temperature;BME280_humidity;BME280_pressure;Samples;Min_cycle;Max_cycle;Signal;HPM_P1;HPM_P2
2022/04/05 00:00:28;;;;;;;7.50;6.20;;;5.40;99.90;;;;;;4988355;28;20447;-87
2022/04/05 00:02:55;;;;;;;7.90;7.10;;;5.50;99.90;;;;;;4994078;28;20525;-87
2022/04/05 00:05:21;;;;;;;7.13;6.40;;;5.50;99.90;;;;;;4985244;28;20445;-88
2022/04/05 00:07:46;;;;;;;8.73;6.80;;;5.50;99.90;;;;;;4990066;28;20444;-88
2022/04/05 00:10:15;;;;;;;9.13;6.87;;;5.50;99.90;;;;;;4988814;28;20471;-88
2022/04/05 00:12:44;;;;;;;6.50;5.90;;;5.50;99.90;;;;;;4993721;28;20260;-86
2022/04/05 00:15:32;;;;;;;9.03;6.80;;;5.50;99.90;;;;;;4994310;28;20526;-87
2022/04/05 00:17:58;;;;;;;7.00;6.30;;;5.50;99.90;;;;;;4985766;28;20432;-86
2022/04/05 00:20:38;;;;;;;6.83;6.13;;;5.50;99.90;;;;;;4994956;28;20463;-87
2022/04/05 00:23:04;;;;;;;7.97;6.93;;;5.50;99.90;;;;;;4996712;28;20480;-86
2022/04/05 00:25:33;;;;;;;7.17;6.10;;;5.50;99.90;;;;;;4986253;28;20768;-87
2022/04/05 00:27:58;;;;;;;6.20;5.60;;;5.40;99.90;;;;;;4988431;28;20197;-86
2022/04/05 00:30:24;;;;;;;6.50;5.70;;;5.40;99.90;;;;;;5003970;28;20445;-88
2022/04/05 00:32:50;;;;;;;6.27;5.47;;;5.50;99.90;;;;;;4986899;28;20189;-88
2022/04/05 00:35:16;;;;;;;7.10;5.77;;;5.50;99.90;;;;;;4998117;28;20202;-88
2022/04/05 00:37:41;;;;;;;6.80;6.10;;;5.40;99.90;;;;;;4983159;28;20500;-87
2022/04/05 00:40:09;;;;;;;8.80;6.43;;;5.50;99.90;;;;;;4989029;28;20192;-86
2022/04/05 00:42:37;;;;;;;8.00;6.23;;;5.40;99.90;;;;;;4987432;28;20280;-87
2022/04/05 00:45:04;;;;;;;6.73;5.90;;;5.40;99.90;;;;;;4993379;28;20480;-88
2022/04/05 00:47:30;;;;;;;6.87;6.17;;;5.50;99.90;;;;;;4994040;28;20437;-88
2022/04/05 00:49:56;;;;;;;7.47;6.40;;;5.50;99.90;;;;;;4980070;28;20452;-87
2022/04/05 00:52:23;;;;;;;6.90;4.87;;;5.50;99.90;;;;;;4986684;28;20204;-87
2022/04/05 00:54:52;;;;;;;6.63;5.60;;;5.50;99.90;;;;;;4998076;28;20439;-87
2022/04/05 00:57:22;;;;;;;5.63;5.10;;;5.50;99.90;;;;;;4988304;28;20777;-86
2022/04/05 00:59:52;;;;;;;6.50;5.90;;;5.50;99.90;;;;;;4996982;28;21168;-87
2022/04/05 01:02:21;;;;;;;7.73;6.93;;;5.50;99.90;;;;;;4989312;28;20491;-87
2022/04/05 01:04:49;;;;;;;6.70;5.30;;;5.60;99.90;;;;;;4996794;28;20482;-87
2022/04/05 01:07:22;;;;;;;5.90;5.23;;;5.60;99.90;;;;;;4981459;28;20501;-87
2022/04/05 01:09:53;;;;;;;7.20;6.40;;;5.60;99.90;;;;;;4992986;28;20856;-87
2022/04/05 01:12:19;;;;;;;7.70;6.83;;;5.60;99.90;;;;;;4987945;28;20991;-87
2022/04/05 01:14:45;;;;;;;8.47;6.30;;;5.60;99.90;;;;;;4981693;28;20438;-86
2022/04/05 01:17:11;;;;;;;6.60;6.00;;;5.60;99.90;;;;;;5000018;28;20444;-87
2022/04/05 01:19:37;;;;;;;6.90;6.30;;;5.60;99.90;;;;;;4986698;28;20553;-86
2022/04/05 01:22:03;;;;;;;7.53;5.60;;;5.60;99.90;;;;;;4993343;28;20444;-87
2022/04/05 01:24:29;;;;;;;7.43;5.93;;;5.60;99.90;;;;;;4994515;28;20536;-86
2022/04/05 01:26:57;;;;;;;6.10;5.60;;;5.60;99.90;;;;;;4985596;28;20439;-85
2022/04/05 01:29:27;;;;;;;8.50;6.50;;;5.60;99.90;;;;;;5016218;28;20192;-87
2022/04/05 01:31:55;;;;;;;6.90;6.20;;;5.60;99.90;;;;;;5013157;28;20631;-87
2022/04/05 01:34:23;;;;;;;7.07;5.73;;;5.60;99.90;;;;;;4998338;28;20459;-88
2022/04/05 01:36:51;;;;;;;5.67;5.17;;;5.60;99.90;;;;;;4986818;28;21378;-87
2022/04/05 01:39:19;;;;;;;8.03;6.60;;;5.60;99.90;;;;;;4986499;28;20603;-86
2022/04/05 01:41:46;;;;;;;6.43;5.80;;;5.60;99.90;;;;;;5007121;28;20465;-87
2022/04/05 01:44:13;;;;;;;6.03;5.47;;;5.60;99.90;;;;;;4992379;28;20833;-87
2022/04/05 01:46:39;;;;;;;7.87;6.80;;;5.60;99.90;;;;;;5004786;28;20469;-87
2022/04/05 01:49:09;;;;;;;7.27;5.87;;;5.60;99.90;;;;;;4983761;28;20451;-88
2022/04/05 01:51:37;;;;;;;6.70;5.83;;;5.60;99.90;;;;;;4983979;28;20436;-86
2022/04/05 01:54:07;;;;;;;6.87;6.20;;;5.60;99.90;;;;;;4992439;28;20448;-87
2022/04/05 01:56:41;;;;;;;7.80;6.60;;;5.60;99.90;;;;;;4995428;28;20462;-86
2022/04/05 01:59:06;;;;;;;8.27;6.47;;;5.60;99.90;;;;;;4983873;28;20768;-86
2022/04/05 02:01:32;;;;;;;6.83;6.10;;;5.50;99.90;;;;;;4973853;28;20438;-86
2022/04/05 02:03:57;;;;;;;6.80;6.10;;;5.50;99.90;;;;;;4988697;28;22052;-87
2022/04/05 02:06:24;;;;;;;7.50;6.80;;;5.50;99.90;;;;;;4987346;28;20209;-87
2022/04/05 02:08:50;;;;;;;6.53;5.50;;;5.50;99.90;;;;;;4981427;28;20369;-87
2022/04/05 02:11:15;;;;;;;6.70;5.23;;;5.50;99.90;;;;;;4980978;28;20441;-87
2022/04/05 02:13:41;;;;;;;6.53;5.83;;;5.50;99.90;;;;;;4991456;28;20206;-87
2022/04/05 02:16:06;;;;;;;6.93;6.23;;;5.60;99.90;;;;;;4984100;28;20547;-86
2022/04/05 02:18:32;;;;;;;6.43;5.80;;;5.60;99.90;;;;;;4987725;28;20200;-87
2022/04/05 02:20:59;;;;;;;8.83;6.93;;;5.60;99.90;;;;;;4995132;28;20187;-87
2022/04/05 02:23:25;;;;;;;6.70;6.00;;;5.60;99.90;;;;;;4991034;28;21017;-87
2022/04/05 02:25:50;;;;;;;7.03;6.40;;;5.60;99.90;;;;;;4994204;28;20189;-87
2022/04/05 02:28:16;;;;;;;9.23;6.50;;;5.60;99.90;;;;;;4997741;28;22219;-87
2022/04/05 02:30:41;;;;;;;7.03;6.20;;;5.60;99.90;;;;;;4990645;28;20182;-88
2022/04/05 02:33:07;;;;;;;7.60;6.80;;;5.60;99.90;;;;;;5004255;28;20273;-87
2022/04/05 02:35:33;;;;;;;7.27;6.57;;;5.60;99.90;;;;;;4987106;28;20293;-86
2022/04/05 02:38:00;;;;;;;7.83;6.33;;;5.50;99.90;;;;;;4984545;28;20447;-87
2022/04/05 02:40:27;;;;;;;6.30;5.70;;;5.60;99.90;;;;;;4988434;28;21997;-87
2022/04/05 02:42:52;;;;;;;7.33;6.23;;;5.60;99.90;;;;;;4996542;28;20525;-86
2022/04/05 02:45:20;;;;;;;7.17;6.30;;;5.50;99.90;;;;;;4994901;28;20442;-86
2022/04/05 02:47:46;;;;;;;6.17;5.50;;;5.60;99.90;;;;;;4984124;28;20551;-86
2022/04/05 02:50:17;;;;;;;8.70;6.40;;;5.60;99.90;;;;;;4985258;28;20203;-86
2022/04/05 02:52:46;;;;;;;7.40;6.23;;;5.60;99.90;;;;;;5007110;28;20304;-88
2022/04/05 02:55:12;;;;;;;6.90;6.00;;;5.60;99.90;;;;;;5005191;28;20450;-86
2022/04/05 02:57:42;;;;;;;9.07;6.13;;;5.60;99.90;;;;;;5000029;28;21194;-86
2022/04/05 03:00:11;;;;;;;6.70;6.10;;;5.60;99.90;;;;;;5000932;28;20180;-86
2022/04/05 03:02:37;;;;;;;7.70;6.67;;;5.60;99.90;;;;;;5002787;28;20452;-86
2022/04/05 03:05:07;;;;;;;6.53;5.70;;;5.60;99.90;;;;;;4982152;28;20495;-87
2022/04/05 03:07:36;;;;;;;9.97;7.20;;;5.60;99.90;;;;;;4978500;28;20444;-86
2022/04/05 03:10:03;;;;;;;7.20;6.43;;;5.60;99.90;;;;;;4986190;28;20781;-86
2022/04/05 03:12:29;;;;;;;9.37;7.20;;;5.70;99.90;;;;;;4982314;28;20539;-88
2022/04/05 03:14:55;;;;;;;8.53;7.20;;;5.70;99.90;;;;;;4992772;28;20541;-88
2022/04/05 03:17:20;;;;;;;7.00;6.30;;;5.70;99.90;;;;;;4986792;28;20454;-87
2022/04/05 03:19:46;;;;;;;8.20;7.10;;;5.70;99.90;;;;;;4997359;28;20445;-86
2022/04/05 03:22:16;;;;;;;7.53;6.67;;;5.60;99.90;;;;;;4992865;28;20194;-87
2022/04/05 03:24:42;;;;;;;8.50;7.13;;;5.70;99.90;;;;;;4995662;28;20221;-86
2022/04/05 03:27:07;;;;;;;7.40;6.70;;;5.60;99.90;;;;;;4994624;28;20496;-86
2022/04/05 03:29:33;;;;;;;7.37;6.40;;;5.60;99.90;;;;;;5001949;28;20455;-87
2022/04/05 03:31:59;;;;;;;8.40;7.00;;;5.60;99.90;;;;;;4982027;28;20186;-86
2022/04/05 03:34:26;;;;;;;7.00;6.30;;;5.60;99.90;;;;;;4982561;28;20282;-86
2022/04/05 03:36:52;;;;;;;7.93;6.90;;;5.60;99.90;;;;;;4984995;28;20203;-86
2022/04/05 03:39:17;;;;;;;6.87;6.10;;;5.60;99.90;;;;;;5000312;28;20456;-87
2022/04/05 03:41:44;;;;;;;7.83;7.03;;;5.60;99.90;;;;;;4993634;28;20920;-86
2022/04/05 03:44:10;;;;;;;7.73;6.90;;;5.60;99.90;;;;;;4985587;28;20862;-87
2022/04/05 03:46:36;;;;;;;7.73;6.93;;;5.70;99.90;;;;;;4988691;28;20459;-87
2022/04/05 03:49:02;;;;;;;8.27;6.47;;;5.70;99.90;;;;;;4977318;28;20633;-86
2022/04/05 03:51:28;;;;;;;6.90;6.20;;;5.70;99.90;;;;;;4989268;28;20189;-86
2022/04/05 03:53:54;;;;;;;6.50;5.70;;;5.70;99.90;;;;;;4999486;28;20993;-86
2022/04/05 03:56:20;;;;;;;7.77;5.90;;;5.70;99.90;;;;;;5003637;28;20220;-86
2022/04/05 03:58:46;;;;;;;7.30;6.53;;;5.70;99.90;;;;;;4987153;28;20973;-85
2022/04/05 04:01:12;;;;;;;7.33;6.57;;;5.70;99.90;;;;;;4989003;28;20446;-86
2022/04/05 04:03:37;;;;;;;6.63;6.03;;;5.60;99.90;;;;;;4986337;28;20480;-87
2022/04/05 04:06:03;;;;;;;6.63;6.03;;;5.60;99.90;;;;;;4996410;28;20279;-85
2022/04/05 04:08:29;;;;;;;7.53;6.10;;;5.60;99.90;;;;;;4997427;28;20201;-86
2022/04/05 04:10:54;;;;;;;6.60;5.90;;;5.70;99.90;;;;;;4997881;28;20201;-88
2022/04/05 04:13:20;;;;;;;7.33;6.63;;;5.70;99.90;;;;;;4985951;28;20449;-90
2022/04/05 04:15:46;;;;;;;8.27;6.20;;;5.70;99.90;;;;;;4994446;28;20207;-90
2022/04/05 04:18:11;;;;;;;7.23;6.57;;;5.80;99.90;;;;;;4992415;28;20531;-87
2022/04/05 04:20:43;;;;;;;6.90;5.80;;;5.80;99.90;;;;;;4991058;28;20186;-84
2022/04/05 04:23:12;;;;;;;6.83;5.80;;;5.80;99.90;;;;;;4990141;28;20232;-86
2022/04/05 04:25:38;;;;;;;7.90;6.00;;;5.80;99.90;;;;;;4979691;28;20569;-88
2022/04/05 04:28:07;;;;;;;6.97;6.27;;;5.80;99.90;;;;;;4989747;28;20456;-88
2022/04/05 04:30:34;;;;;;;7.07;6.37;;;5.80;99.90;;;;;;4986864;28;20223;-86
2022/04/05 04:33:00;;;;;;;6.97;6.03;;;5.80;99.90;;;;;;4993053;28;20453;-87
2022/04/05 04:35:27;;;;;;;8.30;6.80;;;5.80;99.90;;;;;;4980152;28;21321;-87
2022/04/05 04:37:53;;;;;;;6.97;5.20;;;5.80;99.90;;;;;;4976618;28;20448;-88
2022/04/05 04:40:19;;;;;;;7.17;6.47;;;5.80;99.90;;;;;;4966964;28;20459;-87
2022/04/05 04:42:44;;;;;;;7.30;6.60;;;5.80;99.90;;;;;;4969831;28;20193;-87
2022/04/05 04:45:10;;;;;;;7.17;6.20;;;5.80;99.90;;;;;;4973528;28;20555;-86
2022/04/05 04:47:36;;;;;;;8.27;6.47;;;5.80;99.90;;;;;;4964436;28;20537;-86
2022/04/05 04:50:02;;;;;;;6.73;6.13;;;5.70;99.90;;;;;;4982800;28;20191;-87
2022/04/05 04:52:31;;;;;;;7.17;6.47;;;5.60;99.90;;;;;;4979857;28;20464;-88
2022/04/05 04:54:56;;;;;;;7.10;6.03;;;5.60;99.90;;;;;;4977000;28;20458;-84
2022/04/05 04:57:23;;;;;;;7.37;5.67;;;5.60;99.90;;;;;;4963777;28;20575;-84
2022/04/05 04:59:49;;;;;;;7.83;6.40;;;5.60;99.90;;;;;;4999954;28;20189;-84
2022/04/05 05:02:15;;;;;;;6.93;6.10;;;5.60;99.90;;;;;;4990130;28;21972;-84
2022/04/05 05:04:40;;;;;;;6.97;6.10;;;5.50;99.90;;;;;;4988828;28;20619;-84
2022/04/05 05:07:06;;;;;;;7.47;6.77;;;5.50;99.90;;;;;;4988303;28;20194;-84
2022/04/05 05:09:32;;;;;;;7.07;6.20;;;5.50;99.90;;;;;;4975687;28;20191;-84
2022/04/05 05:11:58;;;;;;;7.50;6.80;;;5.50;99.90;;;;;;4980860;28;20230;-84
2022/04/05 05:14:40;;;;;;;7.80;6.70;;;5.50;99.90;;;;;;4989896;28;20456;-84
2022/04/05 05:17:06;;;;;;;8.13;6.73;;;5.50;99.90;;;;;;4974399;28;20215;-84
2022/04/05 05:19:32;;;;;;;7.40;6.50;;;5.50;99.90;;;;;;4984524;28;20457;-84
2022/04/05 05:21:58;;;;;;;6.53;5.93;;;5.60;99.90;;;;;;4976744;28;22009;-84
2022/04/05 05:24:23;;;;;;;7.60;6.90;;;5.60;99.90;;;;;;4990338;28;21001;-84
2022/04/05 05:26:54;;;;;;;8.93;6.97;;;5.50;99.90;;;;;;4971870;28;20589;-84
2022/04/05 05:29:19;;;;;;;8.90;7.50;;;5.50;99.90;;;;;;4976352;28;20192;-84
2022/04/05 05:31:49;;;;;;;6.67;6.07;;;5.50;99.90;;;;;;4980722;28;20441;-85
2022/04/05 05:34:21;;;;;;;7.40;6.70;;;5.50;99.90;;;;;;4975350;28;20236;-84
2022/04/05 05:36:46;;;;;;;7.67;6.80;;;5.50;99.90;;;;;;4976048;28;21343;-83
2022/04/05 05:39:12;;;;;;;7.43;6.10;;;5.60;99.90;;;;;;4974580;28;20447;-83
2022/04/05 05:41:38;;;;;;;8.30;6.87;;;5.60;99.90;;;;;;4991542;28;20194;-86
2022/04/05 05:44:25;;;;;;;8.63;6.77;;;5.60;99.90;;;;;;4979943;28;20294;-85
2022/04/05 05:46:51;;;;;;;7.27;6.57;;;5.70;99.90;;;;;;4984025;28;20447;-84
2022/04/05 05:49:17;;;;;;;6.20;5.70;;;5.80;99.90;;;;;;4966705;28;21171;-88
2022/04/05 05:51:43;;;;;;;8.67;6.80;;;5.70;99.90;;;;;;4979346;28;20764;-86
2022/04/05 05:54:09;;;;;;;7.20;6.00;;;5.70;99.90;;;;;;4994109;28;20452;-87
2022/04/05 05:56:34;;;;;;;6.87;5.63;;;5.70;99.90;;;;;;4987677;28;20205;-87
2022/04/05 05:59:00;;;;;;;6.40;5.80;;;5.70;99.90;;;;;;4967728;28;21019;-87
2022/04/05 06:01:26;;;;;;;6.60;5.97;;;5.70;99.90;;;;;;4979840;28;20182;-86
2022/04/05 06:03:52;;;;;;;8.20;6.47;;;5.70;99.90;;;;;;4978162;28;20224;-85
2022/04/05 06:06:17;;;;;;;6.10;5.43;;;5.70;99.90;;;;;;4977642;28;20182;-86
2022/04/05 06:08:43;;;;;;;6.47;5.83;;;5.70;99.90;;;;;;4983158;28;20283;-86
2022/04/05 06:11:10;;;;;;;7.50;6.10;;;5.70;99.90;;;;;;4988804;28;20306;-85
2022/04/05 06:13:36;;;;;;;8.00;6.60;;;5.70;99.90;;;;;;4985339;28;20602;-85
2022/04/05 06:16:02;;;;;;;7.07;6.40;;;5.70;99.90;;;;;;4984712;28;20456;-85
2022/04/05 06:18:28;;;;;;;6.47;5.87;;;5.60;99.90;;;;;;4988162;28;20451;-85
2022/04/05 06:20:54;;;;;;;7.60;5.83;;;5.70;99.90;;;;;;4982896;28;20444;-85
2022/04/05 06:23:20;;;;;;;6.50;5.90;;;5.70;99.90;;;;;;4986553;28;20481;-85
2022/04/05 06:25:45;;;;;;;6.27;5.67;;;5.70;99.90;;;;;;5002940;28;21273;-86
2022/04/05 06:28:11;;;;;;;6.00;5.50;;;5.70;99.90;;;;;;4991443;28;20193;-84
2022/04/05 06:30:38;;;;;;;7.07;6.23;;;5.70;99.90;;;;;;4985008;28;20732;-85
2022/04/05 06:33:12;;;;;;;7.03;6.23;;;5.70;99.90;;;;;;4984263;28;20194;-86
2022/04/05 06:35:41;;;;;;;7.17;6.03;;;5.70;99.90;;;;;;4992184;28;20490;-85
2022/04/05 06:38:06;;;;;;;6.37;5.57;;;5.80;99.90;;;;;;4998022;28;20444;-86
2022/04/05 06:40:32;;;;;;;6.93;6.07;;;5.80;99.90;;;;;;4985733;28;20443;-86
2022/04/05 06:42:58;;;;;;;9.03;6.37;;;5.80;99.90;;;;;;4992507;28;20546;-85
2022/04/05 06:45:27;;;;;;;8.47;6.10;;;5.80;99.90;;;;;;4987603;28;20474;-85
2022/04/05 06:47:53;;;;;;;6.80;6.20;;;5.80;99.90;;;;;;4998992;28;20203;-86
2022/04/05 06:50:25;;;;;;;6.37;5.77;;;5.80;99.90;;;;;;4989289;28;20445;-86
2022/04/05 06:52:57;;;;;;;6.90;6.20;;;5.90;99.90;;;;;;4996113;28;20195;-85
2022/04/05 06:55:23;;;;;;;5.83;5.30;;;5.90;99.90;;;;;;4989039;28;20437;-85
2022/04/05 06:57:49;;;;;;;9.70;5.37;;;5.90;99.90;;;;;;5014385;28;20475;-85
2022/04/05 07:00:17;;;;;;;6.67;5.63;;;5.90;99.90;;;;;;4995165;28;20503;-84
2022/04/05 07:02:43;;;;;;;5.80;5.20;;;5.90;99.90;;;;;;4994389;28;20184;-85
2022/04/05 07:05:12;;;;;;;6.37;5.40;;;6.00;99.90;;;;;;4991321;28;20534;-85
2022/04/05 07:07:38;;;;;;;6.23;5.63;;;6.00;99.90;;;;;;4984337;28;20633;-85
2022/04/05 07:10:05;;;;;;;7.47;6.10;;;6.00;99.90;;;;;;4989691;28;20451;-85
2022/04/05 07:12:32;;;;;;;7.63;6.23;;;6.10;99.90;;;;;;5002698;28;20573;-85
2022/04/05 07:14:57;;;;;;;6.17;5.67;;;6.10;99.90;;;;;;4985049;28;20868;-85
2022/04/05 07:17:23;;;;;;;6.70;6.00;;;6.10;99.90;;;;;;4980621;28;20446;-85
2022/04/05 07:19:49;;;;;;;5.87;5.17;;;6.10;99.90;;;;;;4987998;28;20184;-85
2022/04/05 07:22:14;;;;;;;6.40;5.47;;;6.10;99.90;;;;;;4995129;28;23050;-85
2022/04/05 07:24:40;;;;;;;5.80;5.30;;;6.20;99.90;;;;;;4996564;28;20247;-85
2022/04/05 07:27:05;;;;;;;5.90;5.30;;;6.20;99.90;;;;;;4991434;28;20683;-84
2022/04/05 07:29:47;;;;;;;8.93;6.30;;;6.20;99.90;;;;;;4984857;28;20204;-85
2022/04/05 07:32:13;;;;;;;5.63;5.07;;;6.20;99.90;;;;;;4982994;28;20445;-85
2022/04/05 07:34:38;;;;;;;6.80;5.20;;;6.20;99.90;;;;;;4982212;28;20213;-85
2022/04/05 07:37:04;;;;;;;7.47;6.03;;;6.30;99.90;;;;;;4986939;28;20553;-85
2022/04/05 07:39:29;;;;;;;6.50;5.30;;;6.30;99.90;;;;;;4988583;28;20179;-84
2022/04/05 07:41:55;;;;;;;6.70;6.00;;;6.30;99.90;;;;;;4985298;28;20347;-85
2022/04/05 07:44:20;;;;;;;4.90;4.37;;;6.40;99.90;;;;;;4986532;28;20226;-85
2022/04/05 07:46:46;;;;;;;6.07;5.47;;;6.40;99.90;;;;;;4979802;28;20176;-84
2022/04/05 07:49:12;;;;;;;5.80;4.67;;;6.50;99.90;;;;;;4981840;28;20194;-85
2022/04/05 07:51:38;;;;;;;7.40;5.27;;;6.50;99.90;;;;;;4985915;28;20514;-84
2022/04/05 07:54:06;;;;;;;6.90;5.77;;;6.50;99.90;;;;;;4981260;28;20949;-85
2022/04/05 07:56:33;;;;;;;5.57;5.07;;;6.60;99.90;;;;;;5000868;28;21200;-85
2022/04/05 07:59:00;;;;;;;5.90;5.30;;;6.60;99.90;;;;;;4990390;28;20454;-85
2022/04/05 08:01:29;;;;;;;8.53;5.93;;;6.60;99.90;;;;;;4971711;28;20442;-85
2022/04/05 08:03:57;;;;;;;7.50;6.00;;;6.60;99.90;;;;;;4983954;28;20549;-85
2022/04/05 08:06:24;;;;;;;6.77;5.83;;;6.70;99.90;;;;;;4994351;28;20517;-85
2022/04/05 08:08:50;;;;;;;6.63;4.87;;;6.70;99.90;;;;;;4982814;28;21275;-85
2022/04/05 08:11:19;;;;;;;5.03;4.53;;;6.80;99.90;;;;;;4988075;28;20480;-84
2022/04/05 08:13:44;;;;;;;5.30;4.80;;;6.80;99.90;;;;;;4991609;28;20449;-85
2022/04/05 08:16:10;;;;;;;5.80;5.20;;;6.90;99.90;;;;;;4979406;28;20447;-85
2022/04/05 08:18:35;;;;;;;5.20;4.70;;;7.00;99.90;;;;;;4982216;28;20223;-85
2022/04/05 08:21:05;;;;;;;5.37;4.87;;;7.00;99.90;;;;;;4996787;28;20195;-86
2022/04/05 08:23:30;;;;;;;4.70;4.20;;;7.10;99.90;;;;;;4988259;28;20223;-85
2022/04/05 08:25:56;;;;;;;7.00;5.10;;;7.20;99.90;;;;;;4985842;28;20447;-88
2022/04/05 08:28:21;;;;;;;9.97;4.73;;;7.20;99.90;;;;;;5002377;28;20197;-89
2022/04/05 08:30:47;;;;;;;5.23;4.73;;;7.30;99.90;;;;;;4988394;28;20764;-86
2022/04/05 08:33:13;;;;;;;6.27;5.67;;;7.40;99.90;;;;;;4989559;28;20180;-87
2022/04/05 08:35:39;;;;;;;8.00;5.50;;;7.40;99.90;;;;;;4992393;28;20200;-87
2022/04/05 08:38:05;;;;;;;6.63;5.07;;;7.40;99.90;;;;;;5006129;28;20188;-87
2022/04/05 08:40:31;;;;;;;4.83;4.40;;;7.40;99.90;;;;;;4993413;28;20452;-86
2022/04/05 08:42:57;;;;;;;6.00;4.90;;;7.40;99.90;;;;;;4995039;28;20217;-87
2022/04/05 08:45:24;;;;;;;5.13;4.10;;;7.40;99.90;;;;;;4987350;28;21145;-86
2022/04/05 08:47:52;;;;;;;4.70;3.97;;;7.50;99.90;;;;;;4998602;28;20968;-88
2022/04/05 08:50:22;;;;;;;8.03;3.90;;;7.50;99.90;;;;;;4992528;28;20448;-89
2022/04/05 08:52:48;;;;;;;4.90;4.30;;;7.50;99.90;;;;;;4977778;28;21156;-88
2022/04/05 08:55:15;;;;;;;4.10;3.70;;;7.50;99.90;;;;;;4998304;28;20452;-88
2022/04/05 08:57:41;;;;;;;6.83;4.50;;;7.60;99.90;;;;;;4987936;28;20544;-88
2022/04/05 09:00:08;;;;;;;5.70;5.07;;;7.50;99.90;;;;;;4986390;28;21189;-88
2022/04/05 09:02:34;;;;;;;4.43;4.00;;;7.50;99.90;;;;;;4995922;28;20192;-87
2022/04/05 09:05:00;;;;;;;5.90;4.40;;;7.50;99.90;;;;;;4996602;28;20930;-88
2022/04/05 09:07:31;;;;;;;6.83;4.10;;;7.40;99.90;;;;;;4992339;28;20508;-88
2022/04/05 09:10:17;;;;;;;4.80;4.40;;;7.50;99.90;;;;;;4997121;28;20192;-89
2022/04/05 09:12:46;;;;;;;4.43;4.00;;;7.70;99.90;;;;;;4994503;28;21445;-88
2022/04/05 09:15:21;;;;;;;7.07;4.73;;;7.70;99.90;;;;;;5001058;28;20446;-88
2022/04/05 09:17:48;;;;;;;6.90;4.40;;;7.80;99.90;;;;;;4989568;28;20542;-89
2022/04/05 09:20:15;;;;;;;5.80;4.77;;;7.80;99.90;;;;;;4992388;28;20456;-89
2022/04/05 09:22:41;;;;;;;6.40;5.00;;;7.90;99.90;;;;;;4990995;28;20756;-89
2022/04/05 09:25:14;;;;;;;5.20;4.70;;;7.90;99.90;;;;;;5002417;28;20482;-88
2022/04/05 09:27:46;;;;;;;5.47;4.97;;;7.90;99.90;;;;;;4992915;28;20395;-89
2022/04/05 09:30:32;;;;;;;4.70;4.30;;;7.90;99.90;;;;;;4998491;28;20453;-90
2022/04/05 09:32:59;;;;;;;7.07;4.03;;;7.90;99.90;;;;;;4986896;28;20457;-86
2022/04/05 09:35:41;;;;;;;5.03;4.63;;;8.00;99.90;;;;;;4984197;28;20464;-87
2022/04/05 09:38:15;;;;;;;6.10;4.60;;;8.00;99.90;;;;;;4984573;28;20443;-88
2022/04/05 09:40:41;;;;;;;4.60;4.10;;;8.10;99.90;;;;;;4985527;28;20453;-85
2022/04/05 09:44:12;;;;;;;4.77;4.37;;;8.10;99.90;;;;;;4980265;28;20449;-87
2022/04/05 09:47:03;;;;;;;5.60;4.47;;;8.20;99.90;;;;;;4980463;28;20988;-88
2022/04/05 09:49:40;;;;;;;4.77;4.30;;;8.20;99.90;;;;;;4979562;28;20990;-88
2022/04/05 09:52:23;;;;;;;4.93;4.43;;;8.30;99.90;;;;;;4985962;28;20507;-89
2022/04/05 09:54:49;;;;;;;6.33;5.03;;;8.50;99.90;;;;;;5003381;28;20447;-90
2022/04/05 09:57:17;;;;;;;4.13;3.80;;;8.60;99.90;;;;;;5005184;28;20450;-91
2022/04/05 09:59:46;;;;;;;6.90;5.27;;;8.70;99.90;;;;;;4996097;28;20192;-87
2022/04/05 10:02:16;;;;;;;5.50;3.70;;;8.70;99.90;;;;;;4980613;28;20635;-86
2022/04/05 10:05:08;;;;;;;4.03;3.20;;;8.70;99.90;;;;;;4982508;28;22296;-90
2022/04/05 10:07:35;;;;;;;5.90;4.80;;;8.60;99.90;;;;;;4987606;28;20915;-89
2022/04/05 10:10:09;;;;;;;4.17;3.77;;;8.80;99.90;;;;;;4996129;28;20450;-90
2022/04/05 10:12:35;;;;;;;5.10;4.60;;;8.80;99.90;;;;;;4996507;28;20879;-91
2022/04/05 10:15:01;;;;;;;4.43;3.87;;;8.80;99.90;;;;;;4987528;28;20294;-91
2022/04/05 10:17:27;;;;;;;5.83;3.90;;;8.90;99.90;;;;;;4987233;28;20387;-91
2022/04/05 10:19:56;;;;;;;8.93;4.00;;;8.90;99.90;;;;;;4999081;28;20192;-88
2022/04/05 10:22:22;;;;;;;4.60;4.20;;;8.90;99.90;;;;;;4999234;28;20443;-91
2022/04/05 10:24:54;;;;;;;5.60;3.87;;;8.90;99.90;;;;;;5013577;28;20472;-85
2022/04/05 10:28:07;;;;;;;4.43;4.03;;;8.90;99.90;;;;;;5002833;28;20438;-86
2022/04/05 10:30:42;;;;;;;4.30;3.90;;;9.10;99.90;;;;;;4985181;28;20451;-88
2022/04/05 10:33:21;;;;;;;4.53;3.77;;;9.10;99.90;;;;;;4995299;28;20462;-86
2022/04/05 10:35:55;;;;;;;6.73;4.50;;;9.20;99.90;;;;;;4994091;28;20467;-88
2022/04/05 10:38:21;;;;;;;5.33;4.70;;;9.20;99.90;;;;;;4991324;28;20772;-88
2022/04/05 10:41:20;;;;;;;4.30;3.93;;;9.20;99.90;;;;;;4993336;28;20439;-88
2022/04/05 10:44:07;;;;;;;4.37;4.03;;;9.20;99.90;;;;;;4992454;28;20479;-86
2022/04/05 10:46:40;;;;;;;4.23;3.93;;;9.20;99.90;;;;;;5020218;28;20435;-88
2022/04/05 10:49:07;;;;;;;4.00;3.63;;;9.20;99.90;;;;;;4992698;28;20450;-88
2022/04/05 10:52:07;;;;;;;4.80;4.30;;;9.10;99.90;;;;;;5000509;28;20545;-88
2022/04/05 10:54:40;;;;;;;6.00;4.80;;;9.00;99.90;;;;;;5000092;28;20451;-90
2022/04/05 10:57:16;;;;;;;5.27;4.30;;;9.00;99.90;;;;;;4998707;28;20536;-86
2022/04/05 10:59:50;;;;;;;4.40;3.60;;;9.00;99.90;;;;;;5007290;28;20454;-89
2022/04/05 11:02:35;;;;;;;5.60;4.50;;;9.10;99.90;;;;;;5009922;28;20893;-89
2022/04/05 11:05:18;;;;;;;5.87;4.27;;;9.20;99.90;;;;;;4993558;28;21046;-87
2022/04/05 11:07:59;;;;;;;4.43;4.03;;;9.30;99.90;;;;;;4993760;28;20496;-86
2022/04/05 11:10:31;;;;;;;5.57;4.20;;;9.20;99.90;;;;;;4983939;28;20442;-89
2022/04/05 11:13:08;;;;;;;4.80;4.20;;;9.20;99.90;;;;;;4970557;28;20537;-91
2022/04/05 11:15:47;;;;;;;4.57;4.20;;;9.10;99.90;;;;;;4972859;28;20515;-90
2022/04/05 11:18:14;;;;;;;4.93;4.40;;;9.20;99.90;;;;;;4999887;28;20449;-88
2022/04/05 11:20:41;;;;;;;9.90;9.00;;;9.10;99.90;;;;;;4984437;28;20450;-88
2022/04/05 11:23:08;;;;;;;25.43;22.23;;;9.20;99.90;;;;;;5002560;28;20495;-86
2022/04/05 11:25:34;;;;;;;4.43;4.10;;;9.30;99.90;;;;;;4995983;28;20484;-87
2022/04/05 11:28:30;;;;;;;4.50;4.10;;;9.30;99.90;;;;;;4996607;28;20439;-88
2022/04/05 11:31:06;;;;;;;5.50;4.40;;;9.20;99.90;;;;;;4996457;28;20428;-87
2022/04/05 11:33:32;;;;;;;4.50;4.10;;;9.40;99.90;;;;;;4989708;28;20441;-88
2022/04/05 11:36:09;;;;;;;5.00;4.60;;;9.50;99.90;;;;;;4991163;28;21099;-88
2022/04/05 11:38:39;;;;;;;5.23;4.53;;;9.70;99.90;;;;;;5005822;28;20184;-88
2022/04/05 11:41:11;;;;;;;4.27;3.87;;;9.70;99.90;;;;;;4995186;28;20435;-88
2022/04/05 11:43:41;;;;;;;4.47;4.07;;;9.60;99.90;;;;;;5000921;28;21123;-87
2022/04/05 11:46:14;;;;;;;5.93;4.70;;;9.60;99.90;;;;;;4993880;28;21220;-88
2022/04/05 11:48:44;;;;;;;5.60;5.10;;;9.40;99.90;;;;;;4992290;28;20452;-87
2022/04/05 11:51:13;;;;;;;4.97;4.57;;;9.30;99.90;;;;;;4997799;28;20931;-88
2022/04/05 11:53:41;;;;;;;4.80;4.27;;;9.40;99.90;;;;;;5004611;28;20449;-89
2022/04/05 11:56:18;;;;;;;6.80;5.10;;;9.30;99.90;;;;;;5007728;28;20440;-88
2022/04/05 11:58:58;;;;;;;4.70;3.87;;;9.20;99.90;;;;;;5017352;28;20610;-88
2022/04/05 12:01:28;;;;;;;5.37;4.80;;;9.20;99.90;;;;;;4996716;28;20449;-88
2022/04/05 12:04:04;;;;;;;5.70;4.47;;;9.30;99.90;;;;;;4992458;28;20475;-88
2022/04/05 12:06:34;;;;;;;6.00;4.57;;;9.30;99.90;;;;;;4993202;28;21116;-87
2022/04/05 12:09:05;;;;;;;4.90;4.50;;;9.40;99.90;;;;;;4990947;28;20850;-88
2022/04/05 12:11:33;;;;;;;5.20;4.70;;;9.50;99.90;;;;;;4995339;28;20451;-87
2022/04/05 12:14:09;;;;;;;4.53;4.13;;;9.50;99.90;;;;;;5002508;28;20478;-88
2022/04/05 12:16:53;;;;;;;5.20;4.60;;;9.60;99.90;;;;;;4989096;28;20518;-88
2022/04/05 12:19:19;;;;;;;4.97;4.57;;;9.70;99.90;;;;;;4993416;28;20610;-88
2022/04/05 12:21:45;;;;;;;4.40;4.00;;;9.80;99.90;;;;;;5008043;28;21013;-88
2022/04/05 12:24:12;;;;;;;3.80;3.50;;;9.80;99.90;;;;;;5005984;28;20472;-88
2022/04/05 12:26:38;;;;;;;5.57;4.77;;;9.80;99.90;;;;;;5010694;28;20189;-88
2022/04/05 12:29:03;;;;;;;5.47;4.97;;;9.70;99.90;;;;;;5001325;28;20453;-88
2022/04/05 12:31:31;;;;;;;3.87;3.53;;;9.70;99.90;;;;;;4995811;28;20405;-88
2022/04/05 12:34:08;;;;;;;4.07;3.67;;;9.60;99.90;;;;;;4992789;28;20192;-88
2022/04/05 12:36:37;;;;;;;6.37;4.73;;;9.60;99.90;;;;;;4993879;28;21181;-88
2022/04/05 12:39:06;;;;;;;4.63;4.20;;;9.40;99.90;;;;;;5008677;28;20443;-88
2022/04/05 12:41:40;;;;;;;6.47;4.57;;;9.50;99.90;;;;;;4996820;28;20436;-88
2022/04/05 12:44:11;;;;;;;6.60;4.17;;;9.50;99.90;;;;;;4996293;28;20482;-88
2022/04/05 12:46:38;;;;;;;4.90;4.40;;;9.60;99.90;;;;;;4995743;28;22070;-87
2022/04/05 12:49:15;;;;;;;4.20;3.90;;;9.60;99.90;;;;;;5000812;28;20450;-89
2022/04/05 12:51:40;;;;;;;4.47;4.10;;;9.80;99.90;;;;;;4998185;28;20476;-88
2022/04/05 12:54:26;;;;;;;5.50;4.60;;;9.80;99.90;;;;;;4996072;28;20542;-88
2022/04/05 12:56:52;;;;;;;4.37;4.07;;;9.80;99.90;;;;;;5008292;28;20173;-88
2022/04/05 12:59:27;;;;;;;4.60;4.10;;;9.90;99.90;;;;;;5004156;28;20881;-88
2022/04/05 13:01:56;;;;;;;5.43;4.50;;;9.90;99.90;;;;;;4994557;28;20185;-89
2022/04/05 13:04:24;;;;;;;4.70;4.30;;;10.00;99.90;;;;;;4995261;28;20477;-88
2022/04/05 13:06:53;;;;;;;4.20;3.80;;;10.00;99.90;;;;;;4996710;28;20439;-88